Latest Weather Observations for Horsham AWS

IDV60801

Issued at 10:31 am EDT Saturday 20 December 2014 (issued every 30 minutes, with the page automatically refreshed every 10 minutes)

About weather observations | Map of weather stations | Latest weather observations for VIC | Other Formats
Station Details ID: 079100 Name: HORSHAM AERODROME Lat: -36.67 Lon: 142.17 Height: 133.8 m
Data from the previous 72 hours. | See also: Recent months at Horsham AWS
Date/Time
EDT
Temp
°C
App
Temp
°C
Dew
Point
Rel
Hum
%
Delta-T
°C
Wind Press
QNH
hPa
Press
MSL
hPa
Rain
since 9 am
mm
Dir
 
Spd
km/h
Gust
km/h
Spd
kts
Gust
kts
20/10:30am 18.6 16.7 7.4 48 5.7 W 7 13 4 7 1019.8 1019.5 0.0
20/10:00am 18.0 15.8 7.7 51 5.2 NNW 9 13 5 7 1020.1 1019.8 0.0
20/09:30am 16.8 14.5 7.4 54 4.7 SW 9 13 5 7 1020.3 1020.0 0.0
20/09:00am 15.7 13.9 7.2 57 4.2 W 6 11 3 6 1020.2 1019.9 0.0
20/08:30am 14.9 13.1 7.0 59 3.9 NW 6 9 3 5 1019.9 1019.6 0.0
20/08:00am 13.8 12.3 6.7 62 3.4 W 4 7 2 4 1019.7 1019.4 0.0
20/07:30am 12.7 11.4 6.1 64 3.1 SSW 2 7 1 4 1019.2 1018.9 0.0
20/07:00am 10.6 9.5 5.2 69 2.5 CALM 0 0 0 0 1018.8 1018.5 0.0
20/06:30am 9.7 7.5 5.3 74 2.0 SSW 6 7 3 4 1018.6 1018.3 0.0
20/05:30am 9.9 7.5 5.1 72 2.2 SSW 7 7 4 4 1018.5 1018.2 0.0
20/05:00am 10.1 7.3 5.3 72 2.2 SSW 9 9 5 5 1018.4 1018.1 0.0
20/04:30am 10.6 8.9 6.0 73 2.1 SSE 4 7 2 4 1018.4 1018.1 0.0
20/04:00am 10.1 7.9 5.5 73 2.1 SSE 6 7 3 4 1018.4 1018.1 0.0
20/03:30am 10.4 7.2 5.0 69 2.5 SSW 11 11 6 6 1018.4 1018.1 0.0
20/03:00am 10.2 6.6 4.8 69 2.4 SSW 13 15 7 8 1018.6 1018.3 0.0
20/02:30am 10.4 6.7 4.3 66 2.7 SSW 13 15 7 8 1018.8 1018.5 0.0
20/02:00am 12.1 7.9 5.5 64 3.1 S 17 20 9 11 1019.2 1018.9 0.0
20/01:30am 12.6 8.4 5.5 62 3.3 SSW 17 19 9 10 1019.4 1019.1 0.0
20/01:00am 13.5 9.0 5.9 60 3.6 SSW 19 22 10 12 1019.6 1019.3 0.0
20/12:30am 14.2 9.1 5.8 57 4.0 S 22 28 12 15 1019.7 1019.4 0.0
 
Date/Time
EDT
Temp
°C
App
Temp
°C
Dew
Point
Rel
Hum
%
Delta-T
°C
Wind Press
QNH
hPa
Press
MSL
hPa
Rain
since 9 am
mm
Dir
 
Spd
km/h
Gust
km/h
Spd
kts
Gust
kts
19/11:30pm 15.3 10.5 5.5 52 4.7 SSW 20 24 11 13 1019.8 1019.5 0.0
19/11:00pm 16.1 10.6 5.7 50 5.0 SW 24 32 13 17 1019.7 1019.4 0.0
19/10:30pm 16.8 11.2 5.4 47 5.5 SSW 24 32 13 17 1019.5 1019.2 0.0
19/10:00pm 17.6 11.3 5.5 45 5.9 SSW 28 35 15 19 1019.1 1018.8 0.0
19/09:30pm 18.7 13.1 5.2 41 6.6 SSW 24 33 13 18 1018.7 1018.4 0.0
19/09:00pm 19.5 14.2 4.8 38 7.1 SSW 22 30 12 16 1018.4 1018.1 0.0
19/08:30pm 21.0 15.5 4.1 33 8.2 SSW 22 28 12 15 1018.2 1017.9 0.0
19/08:00pm 21.9 16.0 4.0 31 8.7 S 24 32 13 17 1017.9 1017.6 0.0
19/07:30pm 22.6 16.8 4.2 30 9.1 SSW 24 35 13 19 1017.6 1017.2 0.0
19/07:00pm 23.2 17.4 4.2 29 9.4 SSW 24 44 13 24 1017.3 1016.9 0.0
19/06:30pm 23.8 17.6 4.2 28 9.7 SSW 26 32 14 17 1017.1 1016.7 0.0
19/06:00pm 23.7 17.5 4.1 28 9.7 SSW 26 39 14 21 1017.0 1016.6 0.0
19/05:30pm 24.0 17.0 3.9 27 9.9 SSW 30 39 16 21 1017.1 1016.7 0.0
19/05:00pm 25.1 19.9 3.7 25 10.6 SSW 20 32 11 17 1017.2 1016.8 0.0
19/04:30pm 24.1 17.8 4.0 27 10.0 SW 26 35 14 19 1017.4 1017.0 0.0
19/04:08pm 23.7 17.7 3.6 27 9.9 SW 24 50 13 27 1017.4 1017.0 0.0
19/04:00pm 23.2 17.6 3.7 28 9.5 SW 22 41 12 22 1017.4 1017.0 0.0
19/03:30pm 23.4 18.4 3.4 27 9.8 SW 19 30 10 16 1017.5 1017.1 0.0
19/03:00pm 22.4 16.3 3.0 28 9.3 SW 24 39 13 21 1017.9 1017.6 0.0
19/02:30pm 22.0 15.5 2.7 28 9.2 SW 26 37 14 20 1017.9 1017.6 0.0
19/02:00pm 22.3 16.7 3.4 29 9.1 WSW 22 35 12 19 1018.1 1017.8 0.0
19/01:30pm 20.8 14.8 3.1 31 8.4 SW 24 37 13 20 1018.3 1018.0 0.0
19/01:00pm 19.9 14.3 3.2 33 7.9 SW 22 35 12 19 1018.5 1018.2 0.0
19/12:30pm 20.0 14.5 4.1 35 7.7 SW 22 37 12 20 1018.7 1018.4 0.0
19/12:00pm 20.1 13.0 3.3 33 8.0 SSW 30 44 16 24 1018.7 1018.4 0.0
19/11:30am 17.7 11.0 3.6 39 6.6 SW 28 37 15 20 1018.9 1018.6 0.0
19/11:00am 18.1 12.4 5.0 42 6.3 SW 24 39 13 21 1019.0 1018.7 0.0
19/10:30am 16.9 11.2 4.9 45 5.7 SW 24 33 13 18 1019.1 1018.8 0.0
19/10:00am 16.3 11.4 5.0 47 5.4 SW 20 30 11 16 1019.1 1018.8 0.0
19/09:30am 16.1 11.3 4.8 47 5.4 SSW 19 28 10 15 1019.0 1018.7 0.0
19/09:00am 14.8 10.0 5.6 54 4.4 SSW 20 30 11 16 1018.7 1018.4 0.2
19/08:30am 13.5 10.5 6.1 61 3.5 SSW 11 17 6 9 1018.4 1018.1 0.2
19/08:00am 12.0 8.7 6.3 68 2.7 SW 13 15 7 8 1018.2 1017.9 0.2
19/07:30am 9.9 6.2 6.1 77 1.8 SSW 15 17 8 9 1018.0 1017.7 0.2
19/07:00am 7.5 5.2 4.6 82 1.3 SSW 6 7 3 4 1017.5 1017.1 0.2
19/06:30am 6.3 2.9 4.0 85 1.0 WSW 11 13 6 7 1017.2 1016.8 0.2
19/06:00am 7.0 3.0 4.8 86 1.0 SW 15 17 8 9 1016.9 1016.5 0.2
19/05:30am 6.2 2.0 3.7 84 1.1 SW 15 17 8 9 1016.7 1016.3 0.2
19/05:00am 5.7 2.5 3.0 83 1.1 SW 9 11 5 6 1016.3 1015.9 0.2
19/04:30am 7.2 3.5 4.2 81 1.3 WSW 13 13 7 7 1016.1 1015.7 0.2
19/04:00am 7.0 3.9 3.6 79 1.5 WSW 9 11 5 6 1015.7 1015.3 0.2
19/03:30am 8.3 4.5 4.1 75 1.8 WSW 13 15 7 8 1015.9 1015.5 0.2
19/03:00am 8.7 4.9 4.1 73 2.0 WSW 13 17 7 9 1015.8 1015.4 0.2
19/02:30am 8.1 4.6 3.4 72 2.0 WSW 11 13 6 7 1016.0 1015.6 0.2
19/02:00am 8.4 5.6 3.1 69 2.3 WSW 7 9 4 5 1016.0 1015.6 0.2
19/01:30am 9.3 5.8 3.3 66 2.6 SW 11 13 6 7 1015.8 1015.4 0.2
19/01:00am 10.6 7.2 3.9 63 3.0 SW 11 15 6 8 1015.9 1015.5 0.2
19/12:30am 9.6 5.3 3.4 65 2.7 SSW 15 17 8 9 1015.7 1015.3 0.2
19/12:00am 10.9 6.3 3.7 61 3.2 SW 17 19 9 10 1015.3 1014.9 0.2
 
Date/Time
EDT
Temp
°C
App
Temp
°C
Dew
Point
Rel
Hum
%
Delta-T
°C
Wind Press
QNH
hPa
Press
MSL
hPa
Rain
since 9 am
mm
Dir
 
Spd
km/h
Gust
km/h
Spd
kts
Gust
kts
18/11:30pm 11.7 7.5 4.0 59 3.5 SSW 15 19 8 10 1015.1 1014.7 0.2
18/11:00pm 13.3 8.5 4.7 56 4.0 SSW 19 26 10 14 1015.0 1014.6 0.2
18/10:30pm 14.3 8.6 5.1 54 4.3 SW 24 33 13 18 1014.8 1014.4 0.2
18/10:00pm 15.1 9.8 4.8 50 4.9 SW 22 28 12 15 1014.3 1013.9 0.2
18/09:30pm 15.6 10.7 2.1 40 6.0 WSW 17 20 9 11 1013.9 1013.5 0.2
18/09:00pm 16.5 10.2 1.4 36 6.7 WSW 24 32 13 17 1013.2 1012.9 0.2
18/08:30pm 17.6 9.6 0.7 32 7.5 SW 32 41 17 22 1012.7 1012.4 0.2
18/08:00pm 18.9 11.4 1.0 30 8.1 SW 30 41 16 22 1012.2 1011.9 0.2
18/07:30pm 19.8 11.4 1.7 30 8.3 WSW 35 48 19 26 1011.6 1011.3 0.2
18/07:00pm 20.9 13.0 2.2 29 8.8 SW 33 43 18 23 1011.0 1010.6 0.2
18/06:35pm 20.4 12.0 1.3 28 8.7 WSW 35 54 19 29 1010.6 1010.2 0.2
18/06:30pm 20.3 11.1 1.2 28 8.7 WSW 39 52 21 28 1010.4 1010.0 0.2
18/06:00pm 21.6 12.5 1.8 27 9.3 WSW 39 56 21 30 1009.9 1009.5 0.2
18/05:49pm 21.3 11.9 2.6 29 8.8 WSW 41 59 22 32 1009.8 1009.4 0.2
18/05:30pm 21.6 11.9 2.8 29 8.9 WSW 43 56 23 30 1009.7 1009.3 0.2
18/05:14pm 21.9 13.7 4.5 32 8.6 WSW 37 56 20 30 1009.6 1009.2 0.2
18/05:00pm 21.3 12.5 5.6 36 7.9 WSW 41 57 22 31 1009.8 1009.4 0.2
18/04:36pm 20.3 12.2 7.0 42 6.8 WSW 39 57 21 31 1009.8 1009.4 0.2
18/04:30pm 20.3 12.6 7.3 43 6.7 WSW 37 54 20 29 1009.8 1009.4 0.2
18/04:09pm 21.3 13.4 7.9 42 7.0 WSW 39 57 21 31 1009.7 1009.3 0.2
18/04:00pm 20.5 11.8 7.8 44 6.6 WSW 43 57 23 31 1009.7 1009.3 0.2
18/03:58pm 21.0 13.2 8.3 44 6.7 WSW 39 57 21 31 1009.6 1009.2 0.2
18/03:32pm 19.7 13.6 9.6 52 5.4 W 32 52 17 28 1009.4 1009.0 0.2
18/03:30pm 19.2 13.3 10.5 57 4.7 W 32 41 17 22 1009.3 1008.9 0.2
18/03:27pm 19.2 13.5 11.3 60 4.4 W 32 43 17 23 1009.3 1008.9 0.2
18/03:02pm 17.5 10.9 11.3 67 3.4 WSW 37 56 20 30 1009.3 1008.9 0.2
18/03:00pm 17.8 10.6 10.4 62 4.0 WSW 39 56 21 30 1009.2 1008.8 0.2
18/02:48pm 20.3 14.1 9.5 50 5.8 WSW 32 50 17 27 1008.7 1008.3 0.2
18/02:30pm 19.3 13.8 11.8 62 4.2 WSW 32 44 17 24 1008.7 1008.3 0.2
18/02:02pm 16.5 11.4 13.6 83 1.6 WSW 33 52 18 28 1009.2 1008.8 0.2
18/02:00pm 16.2 10.2 13.3 83 1.6 WSW 37 57 20 31 1009.2 1008.8 0.2
18/01:53pm 15.6 6.5 12.4 81 1.8 WSW 52 80 28 43 1009.2 1008.8 0.0
18/01:47pm 17.9 9.9 10.5 62 4.0 W 43 80 23 43 1008.9 1008.5 0.0
18/01:46pm 18.8 11.2 10.6 59 4.4 W 41 80 22 43 1008.8 1008.4 0.0
18/01:45pm 19.9 12.6 10.3 54 5.2 W 39 78 21 42 1008.6 1008.2 0.0
18/01:30pm 19.9 13.2 11.1 57 4.8 W 37 56 20 30 1008.1 1007.7 0.0
18/01:28pm 19.2 12.6 11.3 60 4.4 W 37 56 20 30 1008.1 1007.7 0.0
18/01:00pm 21.7 14.2 6.4 37 7.8 WNW 35 46 19 25 1008.0 1007.6 0.0
18/12:42pm 21.6 14.6 6.7 38 7.6 WNW 33 52 18 28 1007.9 1007.5 0.0
18/12:30pm 21.9 15.1 7.0 38 7.7 WNW 32 43 17 23 1008.1 1007.7 0.0
18/12:00pm 20.5 14.6 7.5 43 6.7 W 28 39 15 21 1008.4 1008.0 0.0
18/11:30am 18.6 11.3 7.1 47 5.8 W 35 50 19 27 1008.8 1008.4 0.0
18/11:00am 18.2 11.4 7.0 48 5.7 W 32 43 17 23 1008.9 1008.5 0.0
18/10:30am 19.5 12.6 7.3 45 6.2 W 33 43 18 23 1008.7 1008.3 0.0
18/10:00am 18.6 12.2 6.8 46 6.0 W 30 43 16 23 1008.6 1008.2 0.0
18/09:30am 18.6 12.0 6.1 44 6.2 WNW 30 39 16 21 1008.3 1007.9 0.0
18/09:00am 17.6 12.5 5.9 46 5.8 WNW 22 32 12 17 1008.4 1008.0 0.0
18/08:30am 16.1 11.8 5.4 49 5.1 WNW 17 20 9 11 1008.1 1007.7 0.0
18/08:00am 14.7 10.4 5.2 53 4.5 W 17 20 9 11 1008.0 1007.6 0.0
18/07:30am 13.4 9.3 4.3 54 4.2 W 15 19 8 10 1008.0 1007.6 0.0
18/07:00am 9.1 5.8 2.2 62 2.9 NW 9 11 5 6 1007.6 1007.2 0.0
18/06:30am 7.2 3.7 1.3 66 2.4 NW 9 9 5 5 1007.0 1006.6 0.0
18/06:00am 6.8 3.2 0.9 66 2.4 WNW 9 9 5 5 1006.9 1006.5 0.0
18/05:30am 7.1 3.9 0.5 63 2.6 NW 7 9 4 5 1006.7 1006.3 0.0
18/05:00am 7.1 4.0 0.1 61 2.8 W 6 6 3 3 1006.3 1005.9 0.0
18/04:30am 9.5 6.5 2.1 60 3.1 SW 7 11 4 6 1006.2 1005.8 0.0
18/04:00am 9.0 5.9 1.4 59 3.2 SW 7 9 4 5 1006.4 1006.0 0.0
18/03:30am 10.2 6.5 2.1 57 3.5 WSW 11 13 6 7 1006.5 1006.1 0.0
18/03:00am 10.6 7.2 1.7 54 3.8 WSW 9 11 5 6 1006.7 1006.3 0.0
18/02:30am 11.6 7.8 1.8 51 4.2 WSW 11 13 6 7 1006.8 1006.4 0.0
18/02:00am 11.8 8.4 1.7 50 4.3 WSW 9 13 5 7 1006.7 1006.3 0.0
18/01:30am 12.2 8.4 1.5 48 4.6 WSW 11 13 6 7 1007.0 1006.6 0.0
18/01:00am 12.7 8.5 1.7 47 4.8 WSW 13 15 7 8 1007.0 1006.6 0.0
18/12:30am 13.3 8.7 1.3 44 5.2 SW 15 19 8 10 1007.1 1006.7 0.0
18/12:00am 13.6 8.8 -0.1 39 5.8 SW 15 17 8 9 1007.1 1006.7 0.0
 
Date/Time
EDT
Temp
°C
App
Temp
°C
Dew
Point
Rel
Hum
%
Delta-T
°C
Wind Press
QNH
hPa
Press
MSL
hPa
Rain
since 9 am
mm
Dir
 
Spd
km/h
Gust
km/h
Spd
kts
Gust
kts
17/11:30pm 14.3 9.8 -0.2 37 6.1 WSW 13 15 7 8 1007.1 1006.7 0.0
17/11:00pm 15.6 11.1 -0.2 34 6.7 WSW 13 17 7 9 1007.2 1006.8 0.0
17/10:30pm 16.1 11.6 -0.2 33 7.0 WSW 13 17 7 9 1007.2 1006.8 0.0
17/10:00pm 16.8 12.3 0.0 32 7.3 WSW 13 17 7 9 1007.2 1006.8 0.0
17/09:30pm 18.8 13.6 0.4 29 8.2 W 17 22 9 12 1007.3 1006.9 0.0
17/09:00pm 20.0 14.9 0.5 27 8.8 WSW 17 20 9 11 1007.1 1006.7 0.0
17/08:30pm 21.7 17.5 1.9 27 9.3 WSW 13 17 7 9 1007.0 1006.6 0.0
17/08:00pm 22.5 17.9 1.5 25 9.8 WSW 15 20 8 11 1006.8 1006.4 0.0
17/07:30pm 23.1 18.6 2.0 25 10.0 W 15 24 8 13 1006.6 1006.2 0.0
17/07:00pm 23.1 18.2 2.0 25 10.0 WSW 17 24 9 13 1006.3 1005.9 0.0
17/06:30pm 23.8 18.7 0.8 22 10.7 W 17 24 9 13 1006.3 1005.9 0.0
17/06:00pm 23.8 18.2 1.4 23 10.6 WNW 20 30 11 16 1006.4 1006.0 0.0
17/05:30pm 23.3 17.8 0.4 22 10.5 WSW 19 30 10 16 1006.6 1006.2 0.0
17/05:00pm 24.3 19.3 1.2 22 10.9 WSW 17 28 9 15 1006.8 1006.4 0.0
17/04:30pm 23.9 18.4 0.9 22 10.7 W 19 28 10 15 1006.9 1006.5 0.0
17/04:00pm 23.4 17.8 1.1 23 10.4 W 20 33 11 18 1007.0 1006.6 0.0
17/03:30pm 22.2 16.7 0.7 24 9.9 W 19 32 10 17 1007.4 1007.0 0.0
17/03:00pm 21.6 17.0 1.3 26 9.4 W 15 24 8 13 1007.7 1007.3 0.0
17/02:30pm 21.4 16.0 1.1 26 9.3 WNW 19 37 10 20 1008.2 1007.8 0.0
17/02:00pm 21.6 16.6 1.3 26 9.4 WNW 17 28 9 15 1008.6 1008.2 0.0
17/01:30pm 21.2 16.1 1.0 26 9.3 NW 17 30 9 16 1008.9 1008.5 0.0
17/01:00pm 20.3 15.4 1.7 29 8.6 WSW 17 28 9 15 1009.3 1008.9 0.0
17/12:30pm 20.4 16.4 2.7 31 8.3 SW 13 35 7 19 1009.5 1009.1 0.0
17/12:00pm 19.5 14.8 3.2 34 7.7 SSW 17 32 9 17 1009.5 1009.1 0.0
17/11:30am 18.7 14.0 2.9 35 7.4 WSW 17 28 9 15 1009.8 1009.4 0.0
17/11:00am 17.6 12.9 3.1 38 6.7 W 17 24 9 13 1010.0 1009.6 0.0

Other Formats:

Comma delimited format used in spreadsheet applications
http://www.bom.gov.au/fwo/IDV60801/IDV60801.95839.axf

JavaScript Object Notation format (JSON) in row-major order
http://www.bom.gov.au/fwo/IDV60801/IDV60801.95839.json